Time;durP1;ratioP1;P1;durP2;ratioP2;P2;SDS_P1;SDS_P2;PMS_P1;PMS_P2;Temp;Humidity;BMP_temperature;BMP_pressure;BME280_temperature;BME280_humidity;BME280_pressure;Samples;Min_cycle;Max_cycle;Signal;HPM_P1;HPM_P2
2022/03/26 00:00:05;;;;;;;87.53;37.90;;;9.90;63.40;;;;;;4725339;30;20013;-89
2022/03/26 00:02:36;;;;;;;91.22;40.30;;;9.90;64.30;;;;;;4755761;30;20411;-90
2022/03/26 00:05:06;;;;;;;95.93;39.42;;;9.90;68.60;;;;;;4755491;30;20052;-90
2022/03/26 00:07:39;;;;;;;94.72;39.30;;;9.90;71.40;;;;;;4739606;30;20052;-90
2022/03/26 00:10:12;;;;;;;92.95;41.92;;;9.80;73.10;;;;;;4739452;30;20048;-89
2022/03/26 00:12:59;;;;;;;95.03;41.85;;;9.80;75.70;;;;;;4755465;30;20127;-91
2022/03/26 00:15:42;;;;;;;88.22;40.30;;;9.80;78.00;;;;;;4739669;30;20062;-91
2022/03/26 00:18:19;;;;;;;96.25;41.25;;;9.80;81.50;;;;;;4739448;30;20083;-91
2022/03/26 00:20:55;;;;;;;97.32;40.88;;;9.80;84.10;;;;;;4740482;30;20060;-90
2022/03/26 00:23:30;;;;;;;96.30;41.13;;;9.70;86.90;;;;;;4739840;30;20887;-90
2022/03/26 00:26:07;;;;;;;98.82;43.35;;;9.70;89.80;;;;;;4741268;30;20086;-89
2022/03/26 00:28:37;;;;;;;104.97;40.78;;;9.70;91.40;;;;;;4739846;30;20160;-90
2022/03/26 00:31:09;;;;;;;92.93;39.35;;;9.70;92.80;;;;;;4739824;30;20060;-90
2022/03/26 00:33:40;;;;;;;92.90;40.65;;;9.70;93.90;;;;;;4755720;30;20056;-89
2022/03/26 00:36:12;;;;;;;85.78;38.45;;;9.70;95.30;;;;;;4755497;30;20056;-89
2022/03/26 00:38:43;;;;;;;96.78;42.45;;;9.60;96.50;;;;;;4739568;30;20129;-90
2022/03/26 00:41:13;;;;;;;93.38;41.90;;;9.60;98.10;;;;;;4724759;30;20058;-89
2022/03/26 00:43:51;;;;;;;94.47;41.22;;;9.60;99.90;;;;;;4726104;30;20048;-90
2022/03/26 00:46:27;;;;;;;95.00;40.50;;;9.60;99.90;;;;;;4739225;30;20105;-89
2022/03/26 00:48:57;;;;;;;102.65;43.67;;;9.60;99.90;;;;;;4738935;30;20045;-90
2022/03/26 00:51:31;;;;;;;102.15;41.88;;;9.50;99.90;;;;;;4739399;30;20056;-90
2022/03/26 00:54:02;;;;;;;96.22;43.03;;;9.50;99.90;;;;;;4739348;30;20063;-90
2022/03/26 00:56:39;;;;;;;102.05;42.55;;;9.50;99.90;;;;;;4739912;30;20056;-90
2022/03/26 00:59:23;;;;;;;108.47;41.53;;;9.40;99.90;;;;;;4739422;30;20056;-90
2022/03/26 01:02:08;;;;;;;103.43;40.95;;;9.40;99.90;;;;;;4755242;30;20065;-90
2022/03/26 01:04:41;;;;;;;106.15;42.53;;;9.40;99.90;;;;;;4738471;30;20147;-89
2022/03/26 01:07:09;;;;;;;109.32;46.20;;;9.40;99.90;;;;;;4754191;30;20204;-89
2022/03/26 01:09:40;;;;;;;104.53;45.67;;;9.40;99.90;;;;;;4738519;30;20058;-90
2022/03/26 01:12:11;;;;;;;106.57;43.63;;;9.40;99.90;;;;;;4738695;30;20056;-90
2022/03/26 01:14:43;;;;;;;100.72;44.53;;;9.30;99.90;;;;;;4739671;30;20051;-90
2022/03/26 01:17:15;;;;;;;88.18;40.53;;;9.30;99.90;;;;;;4739373;30;20040;-90
2022/03/26 01:19:54;;;;;;;98.50;41.10;;;9.30;99.90;;;;;;4738123;30;20492;-89
2022/03/26 01:22:24;;;;;;;99.55;39.33;;;9.30;99.90;;;;;;4738014;30;20467;-89
2022/03/26 01:24:56;;;;;;;102.22;42.85;;;9.30;99.90;;;;;;4738013;30;20052;-90
2022/03/26 01:27:36;;;;;;;100.75;41.95;;;9.20;99.90;;;;;;4738080;30;20052;-90
2022/03/26 01:30:12;;;;;;;93.20;41.80;;;9.20;99.90;;;;;;4737112;30;20052;-89
2022/03/26 01:32:45;;;;;;;95.07;40.10;;;9.20;99.90;;;;;;4738719;30;20128;-89
2022/03/26 01:35:15;;;;;;;102.13;43.60;;;9.10;99.90;;;;;;4737467;30;20056;-89
2022/03/26 01:37:43;;;;;;;112.68;44.03;;;9.10;99.90;;;;;;4737592;30;20048;-90
2022/03/26 01:40:13;;;;;;;100.45;42.45;;;9.10;99.90;;;;;;4753645;30;20406;-89
2022/03/26 01:42:42;;;;;;;87.18;41.88;;;9.10;99.90;;;;;;4753531;30;20056;-88
2022/03/26 01:45:13;;;;;;;94.00;42.50;;;9.10;99.90;;;;;;4737278;30;20074;-89
2022/03/26 01:47:40;;;;;;;94.15;42.22;;;9.10;99.90;;;;;;4737885;30;20062;-89
2022/03/26 01:50:10;;;;;;;100.05;43.67;;;9.10;99.90;;;;;;4737318;30;20461;-90
2022/03/26 01:52:37;;;;;;;102.38;43.85;;;9.10;99.90;;;;;;4753163;30;20048;-90
2022/03/26 01:55:11;;;;;;;;;;;9.00;99.90;;;;;;4737747;30;20056;-89
2022/03/26 01:57:41;;;;;;;91.70;39.45;;;9.00;99.90;;;;;;4752629;30;19926;-89
2022/03/26 02:00:15;;;;;;;100.25;42.22;;;9.00;99.90;;;;;;4737243;30;20150;-89
2022/03/26 02:02:45;;;;;;;99.38;42.22;;;9.00;99.90;;;;;;4753299;30;20046;-89
2022/03/26 02:05:19;;;;;;;105.10;41.90;;;9.00;99.90;;;;;;4736944;30;20148;-90
2022/03/26 02:07:50;;;;;;;102.72;42.83;;;8.90;99.90;;;;;;4753432;30;20100;-89
2022/03/26 02:10:20;;;;;;;98.88;42.22;;;8.90;99.90;;;;;;4753102;30;20487;-89
2022/03/26 02:12:54;;;;;;;101.43;41.47;;;8.90;99.90;;;;;;4738150;30;20506;-89
2022/03/26 02:15:21;;;;;;;94.72;41.50;;;8.90;99.90;;;;;;4736816;30;20146;-89
2022/03/26 02:17:54;;;;;;;93.38;42.03;;;8.90;99.90;;;;;;4737408;30;20056;-91
2022/03/26 02:20:25;;;;;;;98.35;44.00;;;8.80;99.90;;;;;;4736865;30;20117;-89
2022/03/26 02:22:58;;;;;;;99.32;42.83;;;8.80;99.90;;;;;;4723318;30;20053;-89
2022/03/26 02:25:30;;;;;;;97.88;40.55;;;8.80;99.90;;;;;;4737523;30;20506;-89
2022/03/26 02:28:01;;;;;;;100.85;44.60;;;8.80;99.90;;;;;;4736728;30;20105;-88
2022/03/26 02:30:33;;;;;;;107.55;42.20;;;8.70;99.90;;;;;;4736871;30;20444;-88
2022/03/26 02:33:00;;;;;;;97.95;42.15;;;8.70;99.90;;;;;;4736419;30;20138;-88
2022/03/26 02:35:32;;;;;;;103.45;42.60;;;8.70;99.90;;;;;;4736873;30;20056;-90
2022/03/26 02:38:04;;;;;;;106.72;42.75;;;8.70;99.90;;;;;;4736946;30;20423;-88
2022/03/26 02:40:34;;;;;;;92.10;40.30;;;8.70;99.90;;;;;;4736499;30;20499;-89
2022/03/26 02:43:06;;;;;;;97.60;40.83;;;8.70;99.90;;;;;;4736696;30;20052;-88
2022/03/26 02:45:38;;;;;;;99.40;41.85;;;8.60;99.90;;;;;;4737061;30;20126;-88
2022/03/26 02:48:09;;;;;;;100.18;42.38;;;8.60;99.90;;;;;;4737531;30;20044;-90
2022/03/26 02:50:43;;;;;;;98.55;41.42;;;8.60;99.90;;;;;;4736941;30;20050;-90
2022/03/26 02:53:16;;;;;;;104.95;43.70;;;8.60;99.90;;;;;;4723105;30;20156;-89
2022/03/26 02:55:50;;;;;;;96.28;41.63;;;8.60;99.90;;;;;;4752525;30;20416;-89
2022/03/26 02:58:23;;;;;;;96.07;40.78;;;8.60;99.90;;;;;;4738156;30;20055;-89
2022/03/26 03:00:57;;;;;;;100.53;42.53;;;8.50;99.90;;;;;;4736527;30;20064;-90
2022/03/26 03:03:27;;;;;;;97.53;42.60;;;8.50;99.90;;;;;;4736622;30;20059;-89
2022/03/26 03:05:58;;;;;;;103.32;44.72;;;8.50;99.90;;;;;;4722706;30;20053;-89
2022/03/26 03:08:26;;;;;;;97.30;39.83;;;8.50;99.90;;;;;;4724128;30;20071;-90
2022/03/26 03:10:59;;;;;;;99.35;45.22;;;8.50;99.90;;;;;;4725465;30;20075;-89
2022/03/26 03:13:32;;;;;;;99.90;40.78;;;8.40;99.90;;;;;;4739742;30;20388;-89
2022/03/26 03:16:05;;;;;;;98.28;42.03;;;8.40;99.90;;;;;;4740450;30;20154;-89
2022/03/26 03:18:36;;;;;;;95.28;39.88;;;8.40;99.90;;;;;;4740864;30;20154;-89
2022/03/26 03:21:07;;;;;;;;;;;8.40;99.90;;;;;;4741106;30;20084;-89
2022/03/26 03:23:37;;;;;;;90.22;38.22;;;8.40;99.90;;;;;;4756230;30;19932;-89
2022/03/26 03:26:07;;;;;;;89.18;39.20;;;8.30;99.90;;;;;;4755041;30;20059;-89
2022/03/26 03:28:38;;;;;;;99.18;38.72;;;8.30;99.90;;;;;;4740673;30;20040;-89
2022/03/26 03:31:08;;;;;;;98.65;41.15;;;8.30;99.90;;;;;;4755618;30;20059;-90
2022/03/26 03:33:42;;;;;;;94.85;41.58;;;8.30;99.90;;;;;;4756060;30;20131;-90
2022/03/26 03:36:11;;;;;;;95.90;40.33;;;8.20;99.90;;;;;;4754666;30;20802;-89
2022/03/26 03:38:43;;;;;;;94.13;39.42;;;8.30;99.90;;;;;;4739621;30;20063;-89
2022/03/26 03:41:13;;;;;;;103.55;41.25;;;8.20;99.90;;;;;;4739251;30;20194;-89
2022/03/26 03:43:44;;;;;;;98.43;40.92;;;8.20;99.90;;;;;;4739079;30;20263;-89
2022/03/26 03:46:13;;;;;;;91.35;39.55;;;8.20;99.90;;;;;;4739896;30;20056;-90
2022/03/26 03:48:46;;;;;;;107.72;40.33;;;8.20;99.90;;;;;;4738615;30;20143;-89
2022/03/26 03:51:13;;;;;;;89.32;40.33;;;8.20;99.90;;;;;;4739660;30;20069;-90
2022/03/26 03:53:43;;;;;;;93.93;38.28;;;8.20;99.90;;;;;;4756095;30;20075;-89
2022/03/26 03:56:13;;;;;;;91.97;39.53;;;8.10;99.90;;;;;;4754853;30;20085;-88
2022/03/26 03:58:46;;;;;;;94.45;40.83;;;8.10;99.90;;;;;;4725400;30;20151;-89
2022/03/26 04:01:18;;;;;;;91.88;37.67;;;8.10;99.90;;;;;;4738789;30;20048;-90
2022/03/26 04:03:51;;;;;;;92.13;39.33;;;8.00;99.90;;;;;;4755339;30;20131;-89
2022/03/26 04:06:23;;;;;;;95.22;39.05;;;8.00;99.90;;;;;;4754944;30;20127;-89
2022/03/26 04:08:55;;;;;;;94.53;38.53;;;8.00;99.90;;;;;;4725240;30;20418;-90
2022/03/26 04:11:26;;;;;;;89.65;37.45;;;8.00;99.90;;;;;;4738923;30;20056;-89
2022/03/26 04:14:02;;;;;;;97.53;41.42;;;8.00;99.90;;;;;;4755192;30;20045;-90
2022/03/26 04:16:33;;;;;;;98.68;39.65;;;8.00;99.90;;;;;;4725125;30;20044;-90
2022/03/26 04:19:04;;;;;;;94.90;38.35;;;8.00;99.90;;;;;;4724723;30;20075;-90
2022/03/26 04:21:35;;;;;;;97.70;41.05;;;8.00;99.90;;;;;;4754333;30;20052;-89
2022/03/26 04:24:04;;;;;;;96.10;42.20;;;7.90;99.90;;;;;;4710831;30;20155;-89
2022/03/26 04:26:35;;;;;;;98.82;38.50;;;7.90;99.90;;;;;;4739578;30;20064;-89
2022/03/26 04:29:10;;;;;;;91.10;37.78;;;7.90;99.90;;;;;;4725573;30;20415;-89
2022/03/26 04:31:40;;;;;;;97.30;38.88;;;7.90;99.90;;;;;;4738370;30;20139;-89
2022/03/26 04:34:12;;;;;;;93.20;38.60;;;7.90;99.90;;;;;;4724785;30;20048;-90
2022/03/26 04:36:47;;;;;;;90.38;37.95;;;7.80;99.90;;;;;;4739530;30;20044;-89
2022/03/26 04:39:28;;;;;;;90.85;36.65;;;7.80;99.90;;;;;;4739576;30;20565;-90
2022/03/26 04:42:00;;;;;;;83.30;37.35;;;7.80;99.90;;;;;;4754174;30;20048;-89
2022/03/26 04:44:36;;;;;;;93.03;38.55;;;7.80;99.90;;;;;;4739839;30;20055;-89
2022/03/26 04:47:05;;;;;;;87.78;34.72;;;7.80;99.90;;;;;;4724049;30;20051;-88
2022/03/26 04:49:37;;;;;;;90.38;37.25;;;7.80;99.90;;;;;;4739051;30;20052;-89
2022/03/26 04:52:13;;;;;;;102.55;39.40;;;7.70;99.90;;;;;;4738133;30;20067;-89
2022/03/26 04:54:43;;;;;;;89.65;36.35;;;7.70;99.90;;;;;;4724526;30;20056;-89
2022/03/26 04:57:13;;;;;;;85.73;35.57;;;7.70;99.90;;;;;;4724267;30;20176;-89
2022/03/26 04:59:45;;;;;;;88.00;36.50;;;7.70;99.90;;;;;;4738782;30;20391;-88
2022/03/26 05:02:15;;;;;;;86.18;37.30;;;7.70;99.90;;;;;;4754157;30;20044;-90
2022/03/26 05:04:45;;;;;;;91.07;37.78;;;7.70;99.90;;;;;;4738558;30;20048;-90
2022/03/26 05:10:07;;;;;;;83.25;35.53;;;7.60;99.90;;;;;;4737807;30;20067;-89
2022/03/26 05:12:37;;;;;;;91.53;36.42;;;7.60;99.90;;;;;;4753892;30;20116;-89
2022/03/26 05:15:11;;;;;;;88.47;35.42;;;7.60;99.90;;;;;;4754293;30;20435;-89
2022/03/26 05:17:41;;;;;;;92.18;37.85;;;7.60;99.90;;;;;;4737868;30;20481;-89
2022/03/26 05:20:10;;;;;;;88.55;36.60;;;7.60;99.90;;;;;;4737824;30;20052;-90
2022/03/26 05:22:41;;;;;;;83.47;35.03;;;7.60;99.90;;;;;;4738085;30;20517;-89
2022/03/26 05:25:12;;;;;;;84.45;34.28;;;7.60;99.90;;;;;;4723676;30;20083;-89
2022/03/26 05:27:49;;;;;;;88.88;35.40;;;7.50;99.90;;;;;;4755617;30;20051;-90
2022/03/26 05:30:20;;;;;;;88.03;35.47;;;7.50;99.90;;;;;;4736668;30;20044;-90
2022/03/26 05:32:50;;;;;;;87.32;35.10;;;7.50;99.90;;;;;;4733352;30;20114;-90
2022/03/26 05:35:23;;;;;;;85.22;34.83;;;7.50;99.90;;;;;;4738128;30;20056;-90
2022/03/26 05:37:55;;;;;;;79.45;33.17;;;7.50;99.90;;;;;;4737886;30;20116;-90
2022/03/26 05:40:27;;;;;;;78.38;34.65;;;7.40;99.90;;;;;;4737864;30;20067;-89
2022/03/26 05:42:54;;;;;;;80.47;31.83;;;7.40;99.90;;;;;;4753588;30;20048;-91
2022/03/26 05:45:29;;;;;;;86.55;35.92;;;7.40;99.90;;;;;;4738743;30;20044;-90
2022/03/26 05:48:02;;;;;;;83.80;35.40;;;7.40;99.90;;;;;;4753307;30;20048;-89
2022/03/26 05:50:33;;;;;;;85.45;35.55;;;7.40;99.90;;;;;;4753099;30;20040;-90
2022/03/26 05:53:01;;;;;;;82.20;33.92;;;7.40;99.90;;;;;;4737939;30;20110;-89
2022/03/26 05:55:30;;;;;;;83.72;33.75;;;7.40;99.90;;;;;;4737338;30;20052;-90
2022/03/26 05:58:01;;;;;;;89.53;36.35;;;7.40;99.90;;;;;;4737700;30;20112;-89
2022/03/26 06:00:33;;;;;;;81.28;33.72;;;7.40;99.90;;;;;;4738424;30;20060;-91
2022/03/26 06:03:05;;;;;;;83.40;34.08;;;7.40;99.90;;;;;;4753263;30;20558;-90
2022/03/26 06:06:30;;;;;;;84.47;35.38;;;7.40;99.90;;;;;;4737977;30;20048;-89
2022/03/26 06:09:55;;;;;;;78.43;30.83;;;7.40;99.90;;;;;;4732058;30;20418;-88
2022/03/26 06:16:08;;;;;;;85.45;32.45;;;7.40;99.90;;;;;;4748462;30;20415;-89
2022/03/26 06:39:49;;;;;;;96.60;37.20;;;7.30;99.90;;;;;;3805505;24;20430;-89
2022/03/26 06:55:02;;;;;;;78.57;32.13;;;7.40;99.90;;;;;;5370901;24;20048;-91
2022/03/26 07:41:07;;;;;;;;;;;;;;;;;;;;;
2022/03/26 07:44:27;;;;;;;67.05;27.42;;;8.40;99.90;;;;;;4733583;30;20057;-90
2022/03/26 07:57:26;;;;;;;72.63;27.55;;;8.70;99.90;;;;;;4683351;30;20168;-90
2022/03/26 08:01:21;;;;;;;82.22;29.67;;;8.80;99.90;;;;;;4599738;31;20531;-89
2022/03/26 08:04:20;;;;;;;82.72;31.25;;;8.90;99.90;;;;;;4674266;30;20544;-90
2022/03/26 08:07:22;;;;;;;89.03;32.00;;;9.00;99.90;;;;;;4701838;30;20129;-92
2022/03/26 08:57:09;;;;;;;70.18;29.98;;;10.30;99.90;;;;;;4758177;24;20530;-91
2022/03/26 08:59:41;;;;;;;81.28;29.58;;;10.40;99.90;;;;;;4735940;30;20044;-89
2022/03/26 09:02:08;;;;;;;77.93;29.30;;;10.40;99.90;;;;;;4721582;30;20155;-89
2022/03/26 09:04:52;;;;;;;73.65;28.85;;;10.40;99.90;;;;;;4721781;30;20496;-90
2022/03/26 09:07:49;;;;;;;64.35;26.17;;;10.40;99.90;;;;;;4735523;30;20057;-90
2022/03/26 09:10:16;;;;;;;77.78;31.05;;;10.50;99.90;;;;;;4720459;30;20143;-90
2022/03/26 09:12:46;;;;;;;65.32;28.40;;;10.60;99.90;;;;;;4736802;30;20045;-90
2022/03/26 09:15:14;;;;;;;70.78;28.63;;;10.60;99.90;;;;;;4716397;30;20053;-89
2022/03/26 09:17:42;;;;;;;71.15;27.67;;;10.60;99.90;;;;;;4703296;30;20053;-90
2022/03/26 09:20:17;;;;;;;69.05;26.83;;;10.70;99.90;;;;;;4720656;30;20052;-91
2022/03/26 09:23:08;;;;;;;62.67;25.65;;;10.90;99.90;;;;;;4731440;30;20139;-89
2022/03/26 09:25:37;;;;;;;59.20;24.50;;;10.90;99.90;;;;;;4717700;30;20059;-88
2022/03/26 09:28:19;;;;;;;69.53;29.30;;;11.00;99.90;;;;;;4718262;30;20403;-90
2022/03/26 09:31:08;;;;;;;62.08;24.75;;;11.20;99.90;;;;;;4703532;30;20526;-90
2022/03/26 09:33:52;;;;;;;67.00;27.08;;;11.20;99.90;;;;;;4717840;30;20079;-89
2022/03/26 09:36:29;;;;;;;68.03;27.77;;;11.30;99.90;;;;;;4685977;30;20140;-89
2022/03/26 09:39:05;;;;;;;63.47;28.77;;;11.40;99.90;;;;;;4719795;30;20057;-93
2022/03/26 09:42:06;;;;;;;66.63;27.13;;;11.40;99.90;;;;;;4717640;30;20597;-91
2022/03/26 09:49:14;;;;;;;63.95;26.08;;;11.30;99.90;;;;;;4719770;30;20119;-90
2022/03/26 09:52:00;;;;;;;59.55;25.40;;;11.50;99.90;;;;;;4703639;30;20504;-90
2022/03/26 09:59:27;;;;;;;69.00;26.98;;;11.60;99.90;;;;;;4684934;30;20077;-91
2022/03/26 10:03:27;;;;;;;70.25;29.15;;;11.40;99.90;;;;;;4695582;30;20057;-90
2022/03/26 10:06:48;;;;;;;;;;;;;;;;;;;;;
2022/03/26 10:09:58;;;;;;;52.08;24.48;;;11.80;99.90;;;;;;4737573;30;20059;-91
2022/03/26 10:13:27;;;;;;;60.92;26.23;;;11.40;99.90;;;;;;4737876;30;20143;-90
2022/03/26 10:17:16;;;;;;;59.92;24.75;;;11.20;99.90;;;;;;4727907;30;20067;-91
2022/03/26 11:07:58;;;;;;;69.25;30.77;;;13.40;99.90;;;;;;4751222;30;20055;-89
2022/03/26 11:10:30;;;;;;;61.72;26.10;;;13.60;99.90;;;;;;4735800;30;20056;-89
2022/03/26 11:13:04;;;;;;;57.30;25.50;;;13.60;99.90;;;;;;4722722;30;20044;-89
2022/03/26 11:16:23;;;;;;;54.10;27.63;;;13.60;99.90;;;;;;4741560;30;20118;-90
2022/03/26 11:19:17;;;;;;;58.13;27.83;;;13.50;99.90;;;;;;4755090;30;20048;-88
2022/03/26 11:22:14;;;;;;;56.13;27.03;;;13.60;99.90;;;;;;4699013;30;20075;-88
2022/03/26 11:25:14;;;;;;;57.97;27.95;;;13.60;99.90;;;;;;4719757;30;20317;-90
2022/03/26 11:28:01;;;;;;;49.10;26.77;;;13.80;99.90;;;;;;4721957;30;20072;-91
2022/03/26 11:30:47;;;;;;;48.53;27.13;;;13.70;99.90;;;;;;4722724;30;20052;-90
2022/03/26 11:33:20;;;;;;;47.97;25.52;;;13.70;99.90;;;;;;4738344;30;20106;-88
2022/03/26 11:35:58;;;;;;;45.17;23.75;;;13.80;99.90;;;;;;4722998;30;20048;-89
2022/03/26 11:38:28;;;;;;;47.70;24.13;;;14.00;99.90;;;;;;4723189;30;20115;-89
2022/03/26 11:41:09;;;;;;;43.33;23.17;;;14.00;99.90;;;;;;4738694;30;20080;-90
2022/03/26 11:43:42;;;;;;;39.95;23.45;;;14.00;99.90;;;;;;4738701;30;20559;-89
2022/03/26 11:52:18;;;;;;;34.13;19.23;;;14.20;99.90;;;;;;4727320;30;20124;-90
2022/03/26 11:54:52;;;;;;;36.38;19.23;;;14.10;99.90;;;;;;4735113;30;20064;-90
2022/03/26 11:57:24;;;;;;;31.88;18.90;;;14.20;99.90;;;;;;4739881;30;20514;-91
2022/03/26 11:59:58;;;;;;;;;;;14.40;99.90;;;;;;4755914;30;20051;-91
2022/03/26 12:02:31;;;;;;;34.25;18.27;;;14.40;99.90;;;;;;4739884;30;19932;-89
2022/03/26 12:08:16;;;;;;;23.73;11.43;;;14.50;95.60;;;;;;4739478;30;20062;-89
2022/03/26 12:10:45;;;;;;;15.18;9.88;;;14.60;46.40;;;;;;4725186;30;20087;-89
2022/03/26 12:13:22;;;;;;;16.40;8.48;;;14.80;28.70;;;;;;4724769;30;20059;-90
2022/03/26 12:16:06;;;;;;;13.63;7.07;;;14.80;4.20;;;;;;4726317;30;20147;-89
2022/03/26 12:18:37;;;;;;;12.15;5.97;;;14.80;1.00;;;;;;4725834;30;20491;-89
2022/03/26 12:21:23;;;;;;;12.13;6.70;;;14.80;1.00;;;;;;4755275;30;20499;-88
2022/03/26 12:23:54;;;;;;;13.80;5.38;;;14.70;1.00;;;;;;4739426;30;20143;-90
2022/03/26 12:26:22;;;;;;;8.30;4.88;;;14.60;1.00;;;;;;4754281;30;20511;-90
2022/03/26 12:28:50;;;;;;;7.20;4.93;;;14.70;1.00;;;;;;4755713;30;20123;-90
2022/03/26 12:31:18;;;;;;;7.80;4.53;;;14.80;1.00;;;;;;4739124;30;20131;-92
2022/03/26 12:33:50;;;;;;;9.88;5.22;;;14.90;1.00;;;;;;4755248;30;20488;-88
2022/03/26 12:36:20;;;;;;;10.18;5.25;;;14.80;1.00;;;;;;4724837;30;20052;-91
2022/03/26 12:38:54;;;;;;;12.98;4.93;;;14.70;1.00;;;;;;4739557;30;20060;-89
2022/03/26 12:41:24;;;;;;;10.95;5.80;;;14.70;1.00;;;;;;4754347;30;20079;-91
2022/03/26 12:43:57;;;;;;;12.27;7.03;;;14.70;1.00;;;;;;4739006;30;20068;-92
2022/03/26 12:47:29;;;;;;;18.02;8.80;;;14.70;1.00;;;;;;4746275;30;20055;-90
2022/03/26 12:49:59;;;;;;;13.93;6.70;;;14.80;1.00;;;;;;4740015;30;20056;-90
2022/03/26 12:52:26;;;;;;;12.18;6.65;;;14.70;1.00;;;;;;4738023;30;20052;-90
2022/03/26 12:55:01;;;;;;;10.57;5.95;;;14.60;1.00;;;;;;4754651;30;20048;-90
2022/03/26 13:00:23;;;;;;;17.25;6.93;;;14.70;1.00;;;;;;4754989;30;20151;-89
2022/03/26 13:03:26;;;;;;;12.43;7.22;;;14.80;1.00;;;;;;4724454;30;20142;-90
2022/03/26 13:05:57;;;;;;;11.23;7.40;;;15.10;1.00;;;;;;4755127;30;20048;-89
2022/03/26 13:08:26;;;;;;;16.77;8.52;;;15.00;1.00;;;;;;4754501;30;20131;-89
2022/03/26 13:10:56;;;;;;;19.88;9.60;;;15.10;1.00;;;;;;4754314;30;20052;-91
2022/03/26 13:13:55;;;;;;;17.40;8.35;;;15.20;1.00;;;;;;4742781;30;20059;-89
2022/03/26 13:16:24;;;;;;;26.67;10.27;;;15.30;1.00;;;;;;4738318;30;20503;-92
2022/03/26 13:22:42;;;;;;;15.32;9.85;;;15.90;1.00;;;;;;5298715;24;20455;-84
2022/03/26 13:25:18;;;;;;;16.70;9.55;;;15.90;1.00;;;;;;4738552;30;20459;-90
2022/03/26 14:37:54;;;;;;;5.93;3.78;;;16.50;1.00;;;;;;5753602;24;20038;-90
